createdAt,value
2018-12-15T00:02:41.026Z,94.90
2018-12-15T00:07:43.429Z,94.90
2018-12-15T00:12:45.836Z,94.80
2018-12-15T00:17:48.313Z,94.70
2018-12-15T00:22:50.717Z,94.60
2018-12-15T00:27:53.236Z,94.60
2018-12-15T00:32:55.718Z,94.40
2018-12-15T00:37:58.138Z,94.40
2018-12-15T00:43:00.558Z,94.20
2018-12-15T00:48:03.054Z,94.30
2018-12-15T00:53:05.466Z,94.40
2018-12-15T00:58:07.876Z,94.40
2018-12-15T01:03:10.329Z,94.40
2018-12-15T01:08:12.835Z,94.40
2018-12-15T01:13:15.254Z,94.30
2018-12-15T01:18:17.732Z,94.40
2018-12-15T01:23:20.227Z,94.40
2018-12-15T01:28:22.711Z,94.30
2018-12-15T01:33:25.156Z,94.40
2018-12-15T01:38:27.539Z,94.40
2018-12-15T01:43:29.942Z,94.40
2018-12-15T01:48:32.386Z,94.40
2018-12-15T01:53:34.803Z,94.40
2018-12-15T01:58:37.278Z,94.40
2018-12-15T02:03:39.683Z,94.40
2018-12-15T02:08:42.128Z,94.60
2018-12-15T02:13:44.569Z,94.50
2018-12-15T02:18:47.255Z,94.50
2018-12-15T02:23:49.659Z,94.60
2018-12-15T02:28:52.112Z,94.50
2018-12-15T02:33:54.522Z,94.60
2018-12-15T02:38:57.009Z,94.60
2018-12-15T02:43:59.534Z,94.70
2018-12-15T02:49:01.987Z,94.40
2018-12-15T02:54:04.397Z,94.70
2018-12-15T02:59:06.878Z,94.70
2018-12-15T03:04:09.287Z,94.80
2018-12-15T03:09:11.741Z,94.70
2018-12-15T03:14:14.158Z,94.70
2018-12-15T03:19:16.654Z,94.70
2018-12-15T03:24:19.067Z,94.80
2018-12-15T03:29:21.515Z,94.80
2018-12-15T03:34:23.967Z,94.80
2018-12-15T03:39:26.384Z,94.70
2018-12-15T03:44:28.883Z,94.80
2018-12-15T03:49:31.376Z,94.80
2018-12-15T03:54:33.958Z,94.70
2018-12-15T03:59:36.483Z,94.80
2018-12-15T04:04:39.131Z,94.80
2018-12-15T04:09:41.620Z,94.80
2018-12-15T04:14:44.030Z,94.80
2018-12-15T04:19:46.514Z,94.70
2018-12-15T04:24:48.981Z,94.70
2018-12-15T04:29:51.429Z,94.70
2018-12-15T04:34:53.851Z,94.70
2018-12-15T04:39:56.267Z,95.00
2018-12-15T04:44:58.675Z,94.80
2018-12-15T04:50:01.164Z,94.80
2018-12-15T04:55:04.223Z,94.70
2018-12-15T05:00:07.744Z,94.60
2018-12-15T05:05:10.223Z,94.60
2018-12-15T05:10:12.751Z,94.60
2018-12-15T05:15:15.166Z,94.60
2018-12-15T05:20:17.594Z,94.60
2018-12-15T05:25:20.019Z,94.70
2018-12-15T05:30:22.446Z,94.70
2018-12-15T05:35:24.952Z,94.90
2018-12-15T05:40:27.374Z,94.90
2018-12-15T05:45:29.778Z,94.90
2018-12-15T05:50:32.198Z,95.00
2018-12-15T05:55:34.707Z,95.00
2018-12-15T06:00:37.234Z,94.90
2018-12-15T06:05:39.722Z,94.90
2018-12-15T06:10:42.211Z,94.80
2018-12-15T06:15:44.692Z,94.80
2018-12-15T06:20:47.131Z,94.80
2018-12-15T06:25:49.580Z,95.10
2018-12-15T06:30:51.986Z,95.30
2018-12-15T06:35:54.391Z,95.40
2018-12-15T06:40:56.878Z,95.50
2018-12-15T06:45:59.594Z,95.60
2018-12-15T06:51:02.090Z,95.50
2018-12-15T06:56:04.510Z,95.40
2018-12-15T07:01:06.918Z,95.30
2018-12-15T07:06:09.414Z,95.30
2018-12-15T07:11:11.810Z,95.30
2018-12-15T07:16:14.223Z,95.40
2018-12-15T07:21:16.646Z,95.40
2018-12-15T07:26:19.117Z,95.30
2018-12-15T07:31:21.506Z,95.30
2018-12-15T07:36:23.929Z,95.20
2018-12-15T07:41:26.384Z,95.30
2018-12-15T07:46:28.879Z,95.30
2018-12-15T07:51:31.294Z,95.20
2018-12-15T07:56:33.707Z,95.20
2018-12-15T08:01:36.154Z,95.20
2018-12-15T08:06:38.612Z,95.20
2018-12-15T08:11:46.743Z,94.90
2018-12-15T08:16:49.228Z,94.60
2018-12-15T08:21:51.639Z,94.40
2018-12-15T08:26:54.050Z,94.10
2018-12-15T08:31:56.541Z,93.90
2018-12-15T08:36:59.030Z,93.70
2018-12-15T08:42:01.469Z,93.80
2018-12-15T08:47:03.967Z,93.40
2018-12-15T08:52:06.442Z,93.40
2018-12-15T08:57:10.918Z,93.10
2018-12-15T09:02:13.390Z,93.40
2018-12-15T09:07:16.616Z,92.90
2018-12-15T09:12:19.237Z,92.80
2018-12-15T09:17:21.674Z,92.80
2018-12-15T09:22:24.107Z,92.90
2018-12-15T09:27:26.535Z,92.50
2018-12-15T09:37:42.470Z,92.50
2018-12-15T09:42:44.882Z,92.20
2018-12-15T09:47:47.348Z,92.00
2018-12-15T09:52:49.807Z,92.00
2018-12-15T09:57:52.220Z,91.70
2018-12-15T10:02:54.735Z,91.70
2018-12-15T10:07:57.146Z,91.60
2018-12-15T10:12:59.555Z,91.60
2018-12-15T10:18:01.993Z,91.60
2018-12-15T10:23:04.408Z,91.40
2018-12-15T10:28:06.891Z,91.40
2018-12-15T10:33:09.407Z,91.20
2018-12-15T10:38:11.814Z,90.90
2018-12-15T10:43:14.219Z,91.10
2018-12-15T10:48:16.695Z,90.90
2018-12-15T10:53:19.204Z,90.70
2018-12-15T10:58:21.689Z,90.60
2018-12-15T11:03:24.174Z,90.80
2018-12-15T11:08:26.578Z,90.70
2018-12-15T11:13:28.991Z,90.90
2018-12-15T11:18:31.403Z,90.70
2018-12-15T11:23:33.816Z,90.70
2018-12-15T11:28:36.223Z,90.70
2018-12-15T11:33:38.638Z,90.80
2018-12-15T11:38:41.125Z,90.80
2018-12-15T11:43:43.599Z,90.70
2018-12-15T11:48:46.006Z,90.50
2018-12-15T11:53:48.413Z,90.70
2018-12-15T11:58:50.827Z,90.80
2018-12-15T12:03:53.241Z,90.80
2018-12-15T12:08:55.738Z,90.80
2018-12-15T12:14:00.426Z,90.80
2018-12-15T12:19:02.703Z,90.90
2018-12-15T12:24:05.162Z,90.80
2018-12-15T12:29:07.589Z,91.00
2018-12-15T12:34:09.999Z,90.70
2018-12-15T12:39:12.546Z,90.80
2018-12-15T12:44:14.954Z,90.80
2018-12-15T12:49:17.990Z,90.90
2018-12-15T12:54:20.401Z,90.60
2018-12-15T12:59:22.816Z,90.80
2018-12-15T13:04:25.238Z,90.90
2018-12-15T13:09:27.726Z,91.20
2018-12-15T13:14:30.223Z,90.90
2018-12-15T13:19:32.657Z,90.90
2018-12-15T13:24:35.100Z,90.80
2018-12-15T13:29:37.504Z,90.80
2018-12-15T13:34:39.915Z,90.90
2018-12-15T13:39:42.362Z,90.80
2018-12-15T13:44:44.775Z,91.10
2018-12-15T13:49:47.297Z,91.00
2018-12-15T13:54:49.782Z,90.80
2018-12-15T13:59:52.191Z,90.80
2018-12-15T14:04:54.675Z,90.90
2018-12-15T14:09:57.087Z,91.00
2018-12-15T14:14:59.562Z,91.30
2018-12-15T14:20:02.070Z,90.90
2018-12-15T14:25:04.750Z,91.00
2018-12-15T14:30:07.634Z,90.70
2018-12-15T14:35:10.112Z,90.60
2018-12-15T14:40:12.634Z,90.20
2018-12-15T14:45:15.087Z,89.40
2018-12-15T14:50:23.229Z,89.10
2018-12-15T14:55:21.885Z,89.30
2018-12-15T15:00:24.376Z,89.80
2018-12-15T15:05:26.822Z,90.00
2018-12-15T15:10:29.233Z,90.00
2018-12-15T15:15:31.702Z,90.30
2018-12-15T15:20:34.098Z,89.80
2018-12-15T15:25:36.542Z,89.50
2018-12-15T15:30:38.954Z,88.70
2018-12-15T15:35:41.412Z,88.20
2018-12-15T15:40:43.823Z,88.20
2018-12-15T15:45:46.260Z,88.40
2018-12-15T15:50:48.655Z,88.50
2018-12-15T15:55:51.053Z,88.90
2018-12-15T16:00:53.510Z,89.40
2018-12-15T16:05:55.991Z,89.50
2018-12-15T16:10:58.447Z,89.40
2018-12-15T16:16:00.890Z,90.00
2018-12-15T16:21:03.367Z,88.80
2018-12-15T16:26:05.859Z,88.50
2018-12-15T16:31:08.349Z,88.50
2018-12-15T16:36:10.804Z,88.40
2018-12-15T16:41:13.249Z,88.50
2018-12-15T16:46:15.703Z,88.30
2018-12-15T16:51:18.130Z,88.50
2018-12-15T16:56:20.611Z,89.00
2018-12-15T17:01:23.097Z,89.40
2018-12-15T17:06:25.578Z,89.60
2018-12-15T17:11:27.991Z,90.00
2018-12-15T17:16:30.399Z,90.00
2018-12-15T17:21:32.843Z,90.10
2018-12-15T17:26:35.259Z,90.10
2018-12-15T17:31:37.671Z,90.40
2018-12-15T17:36:40.115Z,90.20
2018-12-15T17:41:42.635Z,90.20
2018-12-15T17:46:45.111Z,89.70
2018-12-15T17:51:47.603Z,90.30
2018-12-15T17:56:50.018Z,89.90
2018-12-15T18:01:52.442Z,90.00
2018-12-15T18:06:54.874Z,90.10
2018-12-15T18:11:57.312Z,90.10
2018-12-15T18:16:59.796Z,90.10
2018-12-15T18:22:02.215Z,90.10
2018-12-15T18:27:04.775Z,90.10
2018-12-15T18:32:07.243Z,90.10
2018-12-15T18:37:09.678Z,90.10
2018-12-15T18:42:12.137Z,90.00
2018-12-15T18:47:14.645Z,90.20
2018-12-15T18:52:17.078Z,90.10
2018-12-15T18:57:19.492Z,90.10
2018-12-15T19:02:22.014Z,89.60
2018-12-15T19:07:24.435Z,89.40
2018-12-15T19:12:26.864Z,89.20
2018-12-15T19:17:29.347Z,88.50
2018-12-15T19:22:31.762Z,88.10
2018-12-15T19:27:34.181Z,88.50
2018-12-15T19:32:36.668Z,88.40
2018-12-15T19:37:39.074Z,88.10
2018-12-15T19:42:41.487Z,88.30
2018-12-15T19:47:44.021Z,88.80
2018-12-15T19:52:46.452Z,88.40
2018-12-15T19:57:48.871Z,88.10
2018-12-15T20:02:51.358Z,88.30
2018-12-15T20:07:53.889Z,88.20
2018-12-15T20:12:56.377Z,88.00
2018-12-15T20:17:58.819Z,87.90
2018-12-15T20:23:01.322Z,88.10
2018-12-15T20:28:03.824Z,88.10
2018-12-15T20:33:06.470Z,88.00
2018-12-15T20:38:08.882Z,87.90
2018-12-15T20:43:11.340Z,88.10
2018-12-15T20:48:13.830Z,87.80
2018-12-15T20:53:16.297Z,88.10
2018-12-15T20:58:18.710Z,88.30
2018-12-15T21:03:21.240Z,88.30
2018-12-15T21:08:23.700Z,88.20
2018-12-15T21:13:26.198Z,88.40
2018-12-15T21:18:28.647Z,88.80
2018-12-15T21:23:31.047Z,88.90
2018-12-15T21:28:33.552Z,89.10
2018-12-15T21:33:35.978Z,89.30
2018-12-15T21:38:38.507Z,89.30
2018-12-15T21:43:40.924Z,89.60
2018-12-15T21:48:43.438Z,89.70
2018-12-15T21:53:45.874Z,89.70
2018-12-15T21:58:48.436Z,90.00
2018-12-15T22:03:50.877Z,90.00
2018-12-15T22:08:53.298Z,90.20
2018-12-15T22:13:55.722Z,90.20
2018-12-15T22:18:58.144Z,90.40
2018-12-15T22:24:00.605Z,90.40
2018-12-15T22:29:03.072Z,90.50
2018-12-15T22:34:05.474Z,90.60
2018-12-15T22:39:07.925Z,90.70
2018-12-15T22:44:10.415Z,90.80
2018-12-15T22:49:12.830Z,91.00
2018-12-15T22:54:15.291Z,91.10
2018-12-15T22:59:17.715Z,91.20
2018-12-15T23:04:20.262Z,91.20
2018-12-15T23:09:22.798Z,91.30
2018-12-15T23:14:25.218Z,91.40
2018-12-15T23:19:27.756Z,91.50
2018-12-15T23:24:30.206Z,91.50
2018-12-15T23:29:32.774Z,91.50
2018-12-15T23:34:35.186Z,91.60
2018-12-15T23:39:37.681Z,91.70
2018-12-15T23:44:40.173Z,91.80
2018-12-15T23:49:42.605Z,91.80
2018-12-15T23:54:45.143Z,91.90
2018-12-15T23:59:47.538Z,91.90
